首页
METAR-TAF:

METAR-TAF

机场 :

迪奥里·哈马尼国际机场

尼亞美, 尼日尔

纬度: 13-29N, 经度: 002-10E, 海拔: 223米

当前天气观测

该预报发布于29分钟前的20:00 UTC
风速9节,风向东转东北
温度 28°C
湿度 7%
气压 1015 hPa
能見度: 2500
浮尘

METAR: DRRN 232000Z 07009KT 2500 DU NSC 28/M11 Q1015 NOSIG

时间: 21:29 (20:29 UTC)

预报

该预报发布于3小时和29分钟前的17:00 UTC
预报有效从23日的 18点(UTC)到 24日的 24点(UTC)
风速10节,风向
能見度: 2500
浮尘
成为
从 23日的 18点(UTC)到 23日的 20点(UTC)
能見度: 3500
成为
从 24日的 02点(UTC)到 24日的 04点(UTC)
能見度: 2000
短暂存在
从 24日的 06点(UTC)到 24日的 12点(UTC)
风速20节,风向
能見度: 0600
高吹尘

TAF: DRRN 231700Z 2318/2424 08010KT 2500 DU NSC BECMG 2318/2320 3500 BECMG 2402/2404 2000 TEMPO 2406/2412 10020KT 0600 BLDU

超过4000个机场的气象观测和天气预报(METAR&TAF报告)。

可查询的气象台以黄色和红色小点在地图上表示。

将鼠标移到小点上方,可查看气象台名称。

然后点击查看天气观测和预报。

如需切换地图:点击带黑十字的绿色按钮放大地图;点击带横线的绿色按钮缩小地图;或者点击绿色箭头查看邻近地区的地图。


METAR-TAF: